sensor_id;sensor_type;location;lat;lon;timestamp;P1;durP1;ratioP1;P2;durP2;ratioP2
35442;SDS011;21561;55.654;37.592;2023-03-14T00:01:43;11.23;;;3.20;;
35442;SDS011;21561;55.654;37.592;2023-03-14T00:04:11;9.18;;;2.75;;
35442;SDS011;21561;55.654;37.592;2023-03-14T00:06:38;9.63;;;2.90;;
35442;SDS011;21561;55.654;37.592;2023-03-14T00:09:05;9.80;;;2.78;;
35442;SDS011;21561;55.654;37.592;2023-03-14T00:11:32;9.82;;;2.80;;
35442;SDS011;21561;55.654;37.592;2023-03-14T00:13:58;10.85;;;2.63;;
35442;SDS011;21561;55.654;37.592;2023-03-14T00:16:26;10.65;;;2.83;;
35442;SDS011;21561;55.654;37.592;2023-03-14T00:18:54;10.00;;;2.50;;
35442;SDS011;21561;55.654;37.592;2023-03-14T00:21:20;11.10;;;2.70;;
35442;SDS011;21561;55.654;37.592;2023-03-14T00:23:47;9.77;;;2.40;;
35442;SDS011;21561;55.654;37.592;2023-03-14T00:26:16;10.40;;;2.20;;
35442;SDS011;21561;55.654;37.592;2023-03-14T00:28:44;10.43;;;2.40;;
35442;SDS011;21561;55.654;37.592;2023-03-14T00:31:13;6.97;;;2.25;;
35442;SDS011;21561;55.654;37.592;2023-03-14T00:33:42;12.63;;;2.47;;
35442;SDS011;21561;55.654;37.592;2023-03-14T00:36:10;6.57;;;2.10;;
35442;SDS011;21561;55.654;37.592;2023-03-14T00:38:42;10.98;;;2.40;;
35442;SDS011;21561;55.654;37.592;2023-03-14T00:41:14;11.20;;;2.80;;
35442;SDS011;21561;55.654;37.592;2023-03-14T00:43:42;8.93;;;2.42;;
35442;SDS011;21561;55.654;37.592;2023-03-14T00:46:09;12.73;;;2.30;;
35442;SDS011;21561;55.654;37.592;2023-03-14T00:48:37;10.43;;;2.53;;
35442;SDS011;21561;55.654;37.592;2023-03-14T00:51:04;7.70;;;2.00;;
35442;SDS011;21561;55.654;37.592;2023-03-14T00:53:37;8.02;;;2.17;;
35442;SDS011;21561;55.654;37.592;2023-03-14T00:56:05;7.43;;;1.88;;
35442;SDS011;21561;55.654;37.592;2023-03-14T00:58:34;7.93;;;2.30;;
35442;SDS011;21561;55.654;37.592;2023-03-14T01:01:08;8.07;;;2.05;;
35442;SDS011;21561;55.654;37.592;2023-03-14T01:03:36;6.25;;;1.90;;
35442;SDS011;21561;55.654;37.592;2023-03-14T01:06:07;6.43;;;1.95;;
35442;SDS011;21561;55.654;37.592;2023-03-14T01:08:38;8.02;;;2.35;;
35442;SDS011;21561;55.654;37.592;2023-03-14T01:11:09;8.07;;;2.30;;
35442;SDS011;21561;55.654;37.592;2023-03-14T01:13:38;8.90;;;2.40;;
35442;SDS011;21561;55.654;37.592;2023-03-14T01:16:06;9.55;;;2.08;;
35442;SDS011;21561;55.654;37.592;2023-03-14T01:18:35;8.38;;;2.42;;
35442;SDS011;21561;55.654;37.592;2023-03-14T01:21:16;11.65;;;2.60;;
35442;SDS011;21561;55.654;37.592;2023-03-14T01:23:54;6.93;;;2.08;;
35442;SDS011;21561;55.654;37.592;2023-03-14T01:26:23;9.70;;;2.30;;
35442;SDS011;21561;55.654;37.592;2023-03-14T01:28:53;11.75;;;2.50;;
35442;SDS011;21561;55.654;37.592;2023-03-14T01:31:21;8.27;;;2.40;;
35442;SDS011;21561;55.654;37.592;2023-03-14T01:33:48;9.75;;;2.50;;
35442;SDS011;21561;55.654;37.592;2023-03-14T01:36:15;8.93;;;2.40;;
35442;SDS011;21561;55.654;37.592;2023-03-14T01:38:42;8.88;;;2.70;;
35442;SDS011;21561;55.654;37.592;2023-03-14T01:41:14;9.93;;;2.28;;
35442;SDS011;21561;55.654;37.592;2023-03-14T01:43:53;10.23;;;3.00;;
35442;SDS011;21561;55.654;37.592;2023-03-14T01:49:13;11.43;;;3.22;;
35442;SDS011;21561;55.654;37.592;2023-03-14T01:51:56;11.30;;;2.75;;
35442;SDS011;21561;55.654;37.592;2023-03-14T01:59:40;8.68;;;2.80;;
35442;SDS011;21561;55.654;37.592;2023-03-14T02:02:13;10.65;;;3.15;;
35442;SDS011;21561;55.654;37.592;2023-03-14T02:04:40;10.02;;;3.00;;
35442;SDS011;21561;55.654;37.592;2023-03-14T02:07:24;7.70;;;2.40;;
35442;SDS011;21561;55.654;37.592;2023-03-14T02:10:00;7.65;;;2.75;;
35442;SDS011;21561;55.654;37.592;2023-03-14T02:12:29;11.77;;;2.80;;
35442;SDS011;21561;55.654;37.592;2023-03-14T02:14:56;12.82;;;2.80;;
35442;SDS011;21561;55.654;37.592;2023-03-14T02:17:22;10.38;;;3.15;;
35442;SDS011;21561;55.654;37.592;2023-03-14T02:22:35;11.93;;;3.25;;
35442;SDS011;21561;55.654;37.592;2023-03-14T02:27:33;10.25;;;3.58;;
35442;SDS011;21561;55.654;37.592;2023-03-14T02:32:35;12.10;;;3.63;;
35442;SDS011;21561;55.654;37.592;2023-03-14T02:35:09;14.27;;;4.20;;
35442;SDS011;21561;55.654;37.592;2023-03-14T02:37:41;12.15;;;3.60;;
35442;SDS011;21561;55.654;37.592;2023-03-14T02:40:12;12.27;;;3.40;;
35442;SDS011;21561;55.654;37.592;2023-03-14T02:42:38;13.15;;;3.70;;
35442;SDS011;21561;55.654;37.592;2023-03-14T02:47:54;16.02;;;4.43;;
35442;SDS011;21561;55.654;37.592;2023-03-14T02:50:26;14.27;;;3.88;;
35442;SDS011;21561;55.654;37.592;2023-03-14T02:52:57;12.00;;;4.10;;
35442;SDS011;21561;55.654;37.592;2023-03-14T02:55:24;15.00;;;4.50;;
35442;SDS011;21561;55.654;37.592;2023-03-14T02:57:53;13.50;;;4.20;;
35442;SDS011;21561;55.654;37.592;2023-03-14T03:00:20;14.68;;;4.53;;
35442;SDS011;21561;55.654;37.592;2023-03-14T03:02:47;14.65;;;4.50;;
35442;SDS011;21561;55.654;37.592;2023-03-14T03:05:14;14.93;;;4.40;;
35442;SDS011;21561;55.654;37.592;2023-03-14T03:07:41;12.25;;;3.97;;
35442;SDS011;21561;55.654;37.592;2023-03-14T03:10:08;15.93;;;4.82;;
35442;SDS011;21561;55.654;37.592;2023-03-14T03:12:35;13.70;;;4.15;;
35442;SDS011;21561;55.654;37.592;2023-03-14T03:15:02;15.82;;;4.78;;
35442;SDS011;21561;55.654;37.592;2023-03-14T03:17:29;17.08;;;4.60;;
35442;SDS011;21561;55.654;37.592;2023-03-14T03:19:56;15.85;;;4.90;;
35442;SDS011;21561;55.654;37.592;2023-03-14T03:22:23;13.85;;;4.93;;
35442;SDS011;21561;55.654;37.592;2023-03-14T03:24:49;12.35;;;4.60;;
35442;SDS011;21561;55.654;37.592;2023-03-14T03:27:16;16.05;;;5.63;;
35442;SDS011;21561;55.654;37.592;2023-03-14T03:29:43;16.17;;;5.10;;
35442;SDS011;21561;55.654;37.592;2023-03-14T03:32:10;14.32;;;5.05;;
35442;SDS011;21561;55.654;37.592;2023-03-14T03:34:37;15.35;;;5.15;;
35442;SDS011;21561;55.654;37.592;2023-03-14T03:37:03;16.33;;;5.68;;
35442;SDS011;21561;55.654;37.592;2023-03-14T03:39:30;15.40;;;5.10;;
35442;SDS011;21561;55.654;37.592;2023-03-14T03:41:57;14.85;;;4.78;;
35442;SDS011;21561;55.654;37.592;2023-03-14T03:44:24;16.20;;;5.07;;
35442;SDS011;21561;55.654;37.592;2023-03-14T03:46:50;17.23;;;5.68;;
35442;SDS011;21561;55.654;37.592;2023-03-14T03:49:18;14.65;;;5.30;;
35442;SDS011;21561;55.654;37.592;2023-03-14T03:51:45;14.70;;;5.00;;
35442;SDS011;21561;55.654;37.592;2023-03-14T03:54:12;16.50;;;5.70;;
35442;SDS011;21561;55.654;37.592;2023-03-14T03:56:38;15.00;;;5.20;;
35442;SDS011;21561;55.654;37.592;2023-03-14T03:59:05;14.50;;;4.82;;
35442;SDS011;21561;55.654;37.592;2023-03-14T04:01:32;15.38;;;6.03;;
35442;SDS011;21561;55.654;37.592;2023-03-14T04:03:59;15.95;;;5.00;;
35442;SDS011;21561;55.654;37.592;2023-03-14T04:06:26;14.50;;;5.53;;
35442;SDS011;21561;55.654;37.592;2023-03-14T04:08:53;17.95;;;5.97;;
35442;SDS011;21561;55.654;37.592;2023-03-14T04:11:20;13.70;;;4.60;;
35442;SDS011;21561;55.654;37.592;2023-03-14T04:13:47;15.85;;;5.20;;
35442;SDS011;21561;55.654;37.592;2023-03-14T04:16:19;16.40;;;5.90;;
35442;SDS011;21561;55.654;37.592;2023-03-14T04:18:47;16.17;;;5.38;;
35442;SDS011;21561;55.654;37.592;2023-03-14T04:21:14;16.13;;;5.68;;
35442;SDS011;21561;55.654;37.592;2023-03-14T04:23:42;18.33;;;5.95;;
35442;SDS011;21561;55.654;37.592;2023-03-14T04:26:09;17.40;;;6.22;;
35442;SDS011;21561;55.654;37.592;2023-03-14T04:28:36;16.80;;;5.50;;
35442;SDS011;21561;55.654;37.592;2023-03-14T04:31:06;16.30;;;5.50;;
35442;SDS011;21561;55.654;37.592;2023-03-14T04:33:34;16.55;;;5.55;;
35442;SDS011;21561;55.654;37.592;2023-03-14T04:36:03;14.07;;;4.90;;
35442;SDS011;21561;55.654;37.592;2023-03-14T04:38:31;15.52;;;4.80;;
35442;SDS011;21561;55.654;37.592;2023-03-14T04:40:58;13.52;;;4.63;;
35442;SDS011;21561;55.654;37.592;2023-03-14T04:43:28;12.75;;;5.10;;
35442;SDS011;21561;55.654;37.592;2023-03-14T04:45:56;14.57;;;4.72;;
35442;SDS011;21561;55.654;37.592;2023-03-14T04:48:24;13.77;;;4.40;;
35442;SDS011;21561;55.654;37.592;2023-03-14T04:50:52;12.65;;;4.05;;
35442;SDS011;21561;55.654;37.592;2023-03-14T04:53:19;12.57;;;4.13;;
35442;SDS011;21561;55.654;37.592;2023-03-14T04:55:52;16.27;;;4.68;;
35442;SDS011;21561;55.654;37.592;2023-03-14T04:58:21;15.13;;;4.40;;
35442;SDS011;21561;55.654;37.592;2023-03-14T05:00:49;14.63;;;4.35;;
35442;SDS011;21561;55.654;37.592;2023-03-14T05:03:17;15.05;;;4.65;;
35442;SDS011;21561;55.654;37.592;2023-03-14T05:05:45;11.40;;;4.00;;
35442;SDS011;21561;55.654;37.592;2023-03-14T05:08:12;13.80;;;4.18;;
35442;SDS011;21561;55.654;37.592;2023-03-14T05:10:39;12.82;;;4.22;;
35442;SDS011;21561;55.654;37.592;2023-03-14T05:13:06;13.48;;;4.18;;
35442;SDS011;21561;55.654;37.592;2023-03-14T05:15:33;16.33;;;4.32;;
35442;SDS011;21561;55.654;37.592;2023-03-14T05:18:00;15.85;;;4.43;;
35442;SDS011;21561;55.654;37.592;2023-03-14T05:20:26;14.15;;;4.35;;
35442;SDS011;21561;55.654;37.592;2023-03-14T05:22:53;13.23;;;4.20;;
35442;SDS011;21561;55.654;37.592;2023-03-14T05:25:20;13.25;;;4.25;;
35442;SDS011;21561;55.654;37.592;2023-03-14T05:27:47;13.75;;;4.03;;
35442;SDS011;21561;55.654;37.592;2023-03-14T05:30:14;14.25;;;3.72;;
35442;SDS011;21561;55.654;37.592;2023-03-14T05:32:40;13.60;;;4.57;;
35442;SDS011;21561;55.654;37.592;2023-03-14T05:35:07;13.27;;;3.80;;
35442;SDS011;21561;55.654;37.592;2023-03-14T05:37:34;11.02;;;3.22;;
35442;SDS011;21561;55.654;37.592;2023-03-14T05:40:01;12.70;;;3.65;;
35442;SDS011;21561;55.654;37.592;2023-03-14T05:42:29;12.02;;;3.28;;
35442;SDS011;21561;55.654;37.592;2023-03-14T05:44:56;14.18;;;3.55;;
35442;SDS011;21561;55.654;37.592;2023-03-14T05:47:22;12.38;;;3.22;;
35442;SDS011;21561;55.654;37.592;2023-03-14T05:49:49;8.95;;;3.25;;
35442;SDS011;21561;55.654;37.592;2023-03-14T05:52:16;11.48;;;3.10;;
35442;SDS011;21561;55.654;37.592;2023-03-14T05:54:43;12.73;;;3.22;;
35442;SDS011;21561;55.654;37.592;2023-03-14T05:57:10;10.63;;;3.17;;
35442;SDS011;21561;55.654;37.592;2023-03-14T05:59:36;13.52;;;3.17;;
35442;SDS011;21561;55.654;37.592;2023-03-14T06:02:03;14.90;;;3.13;;
35442;SDS011;21561;55.654;37.592;2023-03-14T06:04:30;11.43;;;3.85;;
35442;SDS011;21561;55.654;37.592;2023-03-14T06:06:57;9.52;;;2.95;;
35442;SDS011;21561;55.654;37.592;2023-03-14T06:09:24;10.93;;;3.22;;
35442;SDS011;21561;55.654;37.592;2023-03-14T06:11:50;12.10;;;2.92;;
35442;SDS011;21561;55.654;37.592;2023-03-14T06:14:17;12.98;;;3.25;;
35442;SDS011;21561;55.654;37.592;2023-03-14T06:16:44;9.77;;;3.03;;
35442;SDS011;21561;55.654;37.592;2023-03-14T06:19:11;10.82;;;2.95;;
35442;SDS011;21561;55.654;37.592;2023-03-14T06:21:38;9.82;;;3.00;;
35442;SDS011;21561;55.654;37.592;2023-03-14T06:24:05;9.68;;;3.03;;
35442;SDS011;21561;55.654;37.592;2023-03-14T06:26:32;8.93;;;2.85;;
35442;SDS011;21561;55.654;37.592;2023-03-14T06:28:59;10.35;;;2.85;;
35442;SDS011;21561;55.654;37.592;2023-03-14T06:31:30;7.65;;;2.40;;
35442;SDS011;21561;55.654;37.592;2023-03-14T06:33:57;10.07;;;2.88;;
35442;SDS011;21561;55.654;37.592;2023-03-14T06:36:25;10.20;;;2.60;;
35442;SDS011;21561;55.654;37.592;2023-03-14T06:38:52;10.88;;;3.22;;
35442;SDS011;21561;55.654;37.592;2023-03-14T06:41:19;13.48;;;2.78;;
35442;SDS011;21561;55.654;37.592;2023-03-14T06:43:45;14.15;;;3.00;;
35442;SDS011;21561;55.654;37.592;2023-03-14T06:46:12;7.63;;;2.80;;
35442;SDS011;21561;55.654;37.592;2023-03-14T06:48:39;10.35;;;2.83;;
35442;SDS011;21561;55.654;37.592;2023-03-14T06:51:06;12.13;;;2.85;;
35442;SDS011;21561;55.654;37.592;2023-03-14T06:53:33;10.80;;;2.63;;
35442;SDS011;21561;55.654;37.592;2023-03-14T06:56:00;9.98;;;2.78;;
35442;SDS011;21561;55.654;37.592;2023-03-14T06:58:27;8.90;;;2.70;;
35442;SDS011;21561;55.654;37.592;2023-03-14T07:00:53;10.45;;;3.05;;
35442;SDS011;21561;55.654;37.592;2023-03-14T07:03:21;8.90;;;2.42;;
35442;SDS011;21561;55.654;37.592;2023-03-14T07:05:48;8.95;;;2.55;;
35442;SDS011;21561;55.654;37.592;2023-03-14T07:08:15;9.25;;;2.80;;
35442;SDS011;21561;55.654;37.592;2023-03-14T07:10:42;7.95;;;2.70;;
35442;SDS011;21561;55.654;37.592;2023-03-14T07:13:08;10.30;;;3.28;;
35442;SDS011;21561;55.654;37.592;2023-03-14T07:15:35;10.77;;;2.83;;
35442;SDS011;21561;55.654;37.592;2023-03-14T07:18:02;9.48;;;2.70;;
35442;SDS011;21561;55.654;37.592;2023-03-14T07:20:29;8.07;;;2.42;;
35442;SDS011;21561;55.654;37.592;2023-03-14T07:22:58;10.77;;;2.58;;
35442;SDS011;21561;55.654;37.592;2023-03-14T07:25:29;8.95;;;2.63;;
35442;SDS011;21561;55.654;37.592;2023-03-14T07:27:56;11.00;;;3.20;;
35442;SDS011;21561;55.654;37.592;2023-03-14T07:30:23;13.40;;;3.38;;
35442;SDS011;21561;55.654;37.592;2023-03-14T07:32:50;9.88;;;3.03;;
35442;SDS011;21561;55.654;37.592;2023-03-14T07:35:18;11.82;;;2.78;;
35442;SDS011;21561;55.654;37.592;2023-03-14T07:37:45;10.68;;;2.90;;
35442;SDS011;21561;55.654;37.592;2023-03-14T07:40:12;10.10;;;2.70;;
35442;SDS011;21561;55.654;37.592;2023-03-14T07:42:42;10.52;;;2.83;;
35442;SDS011;21561;55.654;37.592;2023-03-14T07:45:09;11.10;;;2.80;;
35442;SDS011;21561;55.654;37.592;2023-03-14T07:47:37;8.23;;;2.60;;
35442;SDS011;21561;55.654;37.592;2023-03-14T07:50:05;6.93;;;2.30;;
35442;SDS011;21561;55.654;37.592;2023-03-14T07:52:32;8.32;;;2.70;;
35442;SDS011;21561;55.654;37.592;2023-03-14T07:54:59;10.40;;;2.90;;
35442;SDS011;21561;55.654;37.592;2023-03-14T07:57:28;10.10;;;2.95;;
35442;SDS011;21561;55.654;37.592;2023-03-14T07:59:54;11.52;;;2.70;;
35442;SDS011;21561;55.654;37.592;2023-03-14T08:02:21;10.07;;;3.05;;
35442;SDS011;21561;55.654;37.592;2023-03-14T08:04:50;10.10;;;2.80;;
35442;SDS011;21561;55.654;37.592;2023-03-14T08:07:17;11.10;;;2.88;;
35442;SDS011;21561;55.654;37.592;2023-03-14T08:09:43;10.27;;;2.92;;
35442;SDS011;21561;55.654;37.592;2023-03-14T08:12:10;7.82;;;2.45;;
35442;SDS011;21561;55.654;37.592;2023-03-14T08:14:37;10.75;;;2.78;;
35442;SDS011;21561;55.654;37.592;2023-03-14T08:17:04;13.63;;;3.15;;
35442;SDS011;21561;55.654;37.592;2023-03-14T08:19:32;9.98;;;2.50;;
35442;SDS011;21561;55.654;37.592;2023-03-14T08:21:59;10.35;;;3.03;;
35442;SDS011;21561;55.654;37.592;2023-03-14T08:24:26;11.02;;;2.72;;
35442;SDS011;21561;55.654;37.592;2023-03-14T08:26:53;10.60;;;2.88;;
35442;SDS011;21561;55.654;37.592;2023-03-14T08:29:20;8.73;;;2.70;;
35442;SDS011;21561;55.654;37.592;2023-03-14T08:31:46;10.40;;;2.70;;
35442;SDS011;21561;55.654;37.592;2023-03-14T08:34:15;7.70;;;2.80;;
35442;SDS011;21561;55.654;37.592;2023-03-14T08:36:42;12.02;;;2.88;;
35442;SDS011;21561;55.654;37.592;2023-03-14T08:39:10;12.63;;;2.72;;
35442;SDS011;21561;55.654;37.592;2023-03-14T08:41:37;9.48;;;2.70;;
35442;SDS011;21561;55.654;37.592;2023-03-14T08:44:07;10.32;;;2.83;;
35442;SDS011;21561;55.654;37.592;2023-03-14T08:46:34;10.90;;;2.92;;
35442;SDS011;21561;55.654;37.592;2023-03-14T08:49:01;11.30;;;2.90;;
35442;SDS011;21561;55.654;37.592;2023-03-14T08:51:28;8.38;;;2.58;;
35442;SDS011;21561;55.654;37.592;2023-03-14T08:53:55;10.13;;;2.78;;
35442;SDS011;21561;55.654;37.592;2023-03-14T08:56:22;9.50;;;2.60;;
35442;SDS011;21561;55.654;37.592;2023-03-14T08:58:51;8.95;;;3.22;;
35442;SDS011;21561;55.654;37.592;2023-03-14T09:01:18;14.43;;;3.50;;
35442;SDS011;21561;55.654;37.592;2023-03-14T09:03:45;12.82;;;2.97;;
35442;SDS011;21561;55.654;37.592;2023-03-14T09:06:14;10.80;;;3.25;;
35442;SDS011;21561;55.654;37.592;2023-03-14T09:08:44;96.35;;;12.60;;
35442;SDS011;21561;55.654;37.592;2023-03-14T09:11:11;14.73;;;3.05;;
35442;SDS011;21561;55.654;37.592;2023-03-14T09:13:39;9.70;;;2.70;;
35442;SDS011;21561;55.654;37.592;2023-03-14T09:16:06;9.38;;;2.90;;
35442;SDS011;21561;55.654;37.592;2023-03-14T09:18:34;11.35;;;2.80;;
35442;SDS011;21561;55.654;37.592;2023-03-14T09:21:01;12.07;;;3.15;;
35442;SDS011;21561;55.654;37.592;2023-03-14T09:23:28;11.25;;;2.72;;
35442;SDS011;21561;55.654;37.592;2023-03-14T09:25:55;11.02;;;3.00;;
35442;SDS011;21561;55.654;37.592;2023-03-14T09:28:23;11.18;;;3.55;;
35442;SDS011;21561;55.654;37.592;2023-03-14T09:30:50;10.30;;;2.70;;
35442;SDS011;21561;55.654;37.592;2023-03-14T09:33:17;7.75;;;2.60;;
35442;SDS011;21561;55.654;37.592;2023-03-14T09:35:45;11.10;;;3.00;;
35442;SDS011;21561;55.654;37.592;2023-03-14T09:38:11;10.98;;;2.80;;
35442;SDS011;21561;55.654;37.592;2023-03-14T09:40:38;10.73;;;3.13;;
35442;SDS011;21561;55.654;37.592;2023-03-14T09:43:09;9.20;;;2.65;;
35442;SDS011;21561;55.654;37.592;2023-03-14T09:45:40;9.60;;;2.80;;
35442;SDS011;21561;55.654;37.592;2023-03-14T09:48:14;10.80;;;3.00;;
35442;SDS011;21561;55.654;37.592;2023-03-14T09:50:46;9.05;;;2.80;;
35442;SDS011;21561;55.654;37.592;2023-03-14T09:53:17;9.55;;;2.80;;
35442;SDS011;21561;55.654;37.592;2023-03-14T09:55:46;12.40;;;2.88;;
35442;SDS011;21561;55.654;37.592;2023-03-14T09:58:16;7.32;;;2.50;;
35442;SDS011;21561;55.654;37.592;2023-03-14T10:00:46;11.00;;;2.90;;
35442;SDS011;21561;55.654;37.592;2023-03-14T10:05:51;9.95;;;3.00;;
35442;SDS011;21561;55.654;37.592;2023-03-14T10:08:18;9.05;;;2.60;;
35442;SDS011;21561;55.654;37.592;2023-03-14T10:10:45;13.35;;;3.03;;
35442;SDS011;21561;55.654;37.592;2023-03-14T10:13:25;8.95;;;2.80;;
35442;SDS011;21561;55.654;37.592;2023-03-14T10:15:55;7.35;;;2.50;;
35442;SDS011;21561;55.654;37.592;2023-03-14T10:18:30;14.57;;;2.95;;
35442;SDS011;21561;55.654;37.592;2023-03-14T10:21:02;9.43;;;2.57;;
35442;SDS011;21561;55.654;37.592;2023-03-14T10:23:50;11.30;;;3.30;;
35442;SDS011;21561;55.654;37.592;2023-03-14T10:26:18;12.43;;;3.35;;
35442;SDS011;21561;55.654;37.592;2023-03-14T10:28:52;11.70;;;2.95;;
35442;SDS011;21561;55.654;37.592;2023-03-14T10:31:24;10.32;;;3.08;;
35442;SDS011;21561;55.654;37.592;2023-03-14T10:34:02;8.85;;;2.90;;
35442;SDS011;21561;55.654;37.592;2023-03-14T10:36:32;11.38;;;2.75;;
35442;SDS011;21561;55.654;37.592;2023-03-14T10:39:15;9.75;;;2.90;;
35442;SDS011;21561;55.654;37.592;2023-03-14T10:42:12;10.75;;;3.05;;
35442;SDS011;21561;55.654;37.592;2023-03-14T10:44:49;11.05;;;2.90;;
35442;SDS011;21561;55.654;37.592;2023-03-14T10:47:22;10.55;;;3.17;;
35442;SDS011;21561;55.654;37.592;2023-03-14T10:49:50;11.27;;;2.92;;
35442;SDS011;21561;55.654;37.592;2023-03-14T10:55:01;9.88;;;2.97;;
35442;SDS011;21561;55.654;37.592;2023-03-14T10:57:39;8.85;;;2.60;;
35442;SDS011;21561;55.654;37.592;2023-03-14T11:00:20;11.73;;;2.80;;
35442;SDS011;21561;55.654;37.592;2023-03-14T11:05:49;10.02;;;2.95;;
35442;SDS011;21561;55.654;37.592;2023-03-14T11:11:21;8.52;;;3.20;;
35442;SDS011;21561;55.654;37.592;2023-03-14T11:28:39;9.10;;;2.70;;
35442;SDS011;21561;55.654;37.592;2023-03-14T11:31:29;10.50;;;3.13;;
35442;SDS011;21561;55.654;37.592;2023-03-14T11:40:06;14.02;;;3.20;;
35442;SDS011;21561;55.654;37.592;2023-03-14T11:42:37;11.23;;;3.00;;
35442;SDS011;21561;55.654;37.592;2023-03-14T11:45:14;9.63;;;2.65;;
35442;SDS011;21561;55.654;37.592;2023-03-14T11:47:45;11.15;;;3.00;;
35442;SDS011;21561;55.654;37.592;2023-03-14T11:50:23;12.88;;;2.95;;
35442;SDS011;21561;55.654;37.592;2023-03-14T11:52:56;10.45;;;3.08;;
35442;SDS011;21561;55.654;37.592;2023-03-14T11:55:34;11.30;;;3.03;;
35442;SDS011;21561;55.654;37.592;2023-03-14T11:58:13;9.18;;;2.95;;
35442;SDS011;21561;55.654;37.592;2023-03-14T12:06:02;11.25;;;2.90;;
35442;SDS011;21561;55.654;37.592;2023-03-14T12:13:51;10.38;;;2.80;;
35442;SDS011;21561;55.654;37.592;2023-03-14T12:18:47;10.02;;;3.20;;
35442;SDS011;21561;55.654;37.592;2023-03-14T12:21:14;10.60;;;2.80;;
35442;SDS011;21561;55.654;37.592;2023-03-14T12:23:59;9.60;;;3.05;;
35442;SDS011;21561;55.654;37.592;2023-03-14T12:26:26;13.10;;;3.15;;
35442;SDS011;21561;55.654;37.592;2023-03-14T12:29:16;10.77;;;3.03;;
35442;SDS011;21561;55.654;37.592;2023-03-14T12:31:49;9.07;;;3.00;;
35442;SDS011;21561;55.654;37.592;2023-03-14T12:34:40;9.18;;;2.70;;
35442;SDS011;21561;55.654;37.592;2023-03-14T12:42:59;10.77;;;3.35;;
35442;SDS011;21561;55.654;37.592;2023-03-14T12:45:34;9.75;;;2.92;;
35442;SDS011;21561;55.654;37.592;2023-03-14T12:48:09;10.68;;;2.90;;
35442;SDS011;21561;55.654;37.592;2023-03-14T12:51:04;10.70;;;2.83;;
35442;SDS011;21561;55.654;37.592;2023-03-14T12:56:26;10.65;;;2.75;;
35442;SDS011;21561;55.654;37.592;2023-03-14T13:04:33;7.18;;;2.55;;
35442;SDS011;21561;55.654;37.592;2023-03-14T13:07:10;9.63;;;2.78;;
35442;SDS011;21561;55.654;37.592;2023-03-14T13:10:18;12.70;;;3.05;;
35442;SDS011;21561;55.654;37.592;2023-03-14T13:15:43;11.70;;;3.00;;
35442;SDS011;21561;55.654;37.592;2023-03-14T13:18:14;9.25;;;2.55;;
35442;SDS011;21561;55.654;37.592;2023-03-14T13:20:51;7.55;;;2.53;;
35442;SDS011;21561;55.654;37.592;2023-03-14T13:23:26;7.10;;;2.47;;
35442;SDS011;21561;55.654;37.592;2023-03-14T13:25:54;9.88;;;2.95;;
35442;SDS011;21561;55.654;37.592;2023-03-14T13:28:21;10.02;;;3.08;;
35442;SDS011;21561;55.654;37.592;2023-03-14T13:30:49;8.27;;;2.80;;
35442;SDS011;21561;55.654;37.592;2023-03-14T13:33:22;10.90;;;2.95;;
35442;SDS011;21561;55.654;37.592;2023-03-14T13:38:30;7.60;;;2.50;;
35442;SDS011;21561;55.654;37.592;2023-03-14T13:40:59;11.02;;;3.03;;
35442;SDS011;21561;55.654;37.592;2023-03-14T13:43:31;9.20;;;2.92;;
35442;SDS011;21561;55.654;37.592;2023-03-14T13:46:10;14.10;;;3.20;;
35442;SDS011;21561;55.654;37.592;2023-03-14T13:48:44;10.07;;;3.00;;
35442;SDS011;21561;55.654;37.592;2023-03-14T13:51:16;14.15;;;3.75;;
35442;SDS011;21561;55.654;37.592;2023-03-14T13:53:52;12.02;;;3.45;;
35442;SDS011;21561;55.654;37.592;2023-03-14T13:56:21;11.38;;;3.08;;
35442;SDS011;21561;55.654;37.592;2023-03-14T13:58:50;9.35;;;2.72;;
35442;SDS011;21561;55.654;37.592;2023-03-14T14:01:18;9.27;;;3.30;;
35442;SDS011;21561;55.654;37.592;2023-03-14T14:03:46;13.25;;;3.15;;
35442;SDS011;21561;55.654;37.592;2023-03-14T14:08:58;11.50;;;3.08;;
35442;SDS011;21561;55.654;37.592;2023-03-14T14:14:36;11.57;;;3.08;;
35442;SDS011;21561;55.654;37.592;2023-03-14T14:17:08;11.57;;;2.97;;
35442;SDS011;21561;55.654;37.592;2023-03-14T14:19:39;15.07;;;3.10;;
35442;SDS011;21561;55.654;37.592;2023-03-14T14:22:10;12.38;;;3.50;;
35442;SDS011;21561;55.654;37.592;2023-03-14T14:24:38;11.48;;;3.10;;
35442;SDS011;21561;55.654;37.592;2023-03-14T14:27:16;7.88;;;2.80;;
35442;SDS011;21561;55.654;37.592;2023-03-14T14:29:57;8.15;;;3.33;;
35442;SDS011;21561;55.654;37.592;2023-03-14T14:32:35;8.52;;;2.95;;
35442;SDS011;21561;55.654;37.592;2023-03-14T14:35:04;13.52;;;3.42;;
35442;SDS011;21561;55.654;37.592;2023-03-14T14:37:40;8.80;;;2.78;;
35442;SDS011;21561;55.654;37.592;2023-03-14T14:40:25;11.57;;;3.38;;
35442;SDS011;21561;55.654;37.592;2023-03-14T14:43:03;10.80;;;3.20;;
35442;SDS011;21561;55.654;37.592;2023-03-14T14:45:33;9.82;;;2.92;;
35442;SDS011;21561;55.654;37.592;2023-03-14T14:50:38;12.13;;;3.10;;
35442;SDS011;21561;55.654;37.592;2023-03-14T14:53:22;11.13;;;3.05;;
35442;SDS011;21561;55.654;37.592;2023-03-14T14:56:20;11.23;;;3.13;;
35442;SDS011;21561;55.654;37.592;2023-03-14T15:01:26;10.77;;;3.28;;
35442;SDS011;21561;55.654;37.592;2023-03-14T15:03:59;13.23;;;3.22;;
35442;SDS011;21561;55.654;37.592;2023-03-14T15:06:28;11.38;;;3.22;;
35442;SDS011;21561;55.654;37.592;2023-03-14T15:08:57;13.23;;;2.85;;
35442;SDS011;21561;55.654;37.592;2023-03-14T15:11:25;10.75;;;2.90;;
35442;SDS011;21561;55.654;37.592;2023-03-14T15:13:52;10.32;;;3.45;;
35442;SDS011;21561;55.654;37.592;2023-03-14T15:16:20;15.18;;;3.47;;
35442;SDS011;21561;55.654;37.592;2023-03-14T15:18:52;15.73;;;3.53;;
35442;SDS011;21561;55.654;37.592;2023-03-14T15:21:24;12.48;;;3.33;;
35442;SDS011;21561;55.654;37.592;2023-03-14T15:23:52;8.98;;;2.85;;
35442;SDS011;21561;55.654;37.592;2023-03-14T15:26:20;9.98;;;3.30;;
35442;SDS011;21561;55.654;37.592;2023-03-14T15:28:48;12.18;;;3.58;;
35442;SDS011;21561;55.654;37.592;2023-03-14T15:31:16;11.50;;;3.30;;
35442;SDS011;21561;55.654;37.592;2023-03-14T15:33:45;11.10;;;3.10;;
35442;SDS011;21561;55.654;37.592;2023-03-14T15:38:48;12.18;;;3.38;;
35442;SDS011;21561;55.654;37.592;2023-03-14T15:41:16;13.57;;;3.67;;
35442;SDS011;21561;55.654;37.592;2023-03-14T15:43:46;11.88;;;3.28;;
35442;SDS011;21561;55.654;37.592;2023-03-14T15:46:14;10.93;;;3.65;;
35442;SDS011;21561;55.654;37.592;2023-03-14T15:48:44;10.60;;;3.40;;
35442;SDS011;21561;55.654;37.592;2023-03-14T15:51:11;11.95;;;3.25;;
35442;SDS011;21561;55.654;37.592;2023-03-14T15:53:38;14.20;;;3.30;;
35442;SDS011;21561;55.654;37.592;2023-03-14T15:56:05;8.85;;;2.92;;
35442;SDS011;21561;55.654;37.592;2023-03-14T15:58:34;10.80;;;3.22;;
35442;SDS011;21561;55.654;37.592;2023-03-14T16:01:01;11.88;;;3.08;;
35442;SDS011;21561;55.654;37.592;2023-03-14T16:03:29;12.75;;;3.60;;
35442;SDS011;21561;55.654;37.592;2023-03-14T16:05:56;10.80;;;3.28;;
35442;SDS011;21561;55.654;37.592;2023-03-14T16:08:23;11.85;;;3.15;;
35442;SDS011;21561;55.654;37.592;2023-03-14T16:10:52;10.23;;;2.78;;
35442;SDS011;21561;55.654;37.592;2023-03-14T16:13:20;14.02;;;3.65;;
35442;SDS011;21561;55.654;37.592;2023-03-14T16:15:54;13.23;;;3.40;;
35442;SDS011;21561;55.654;37.592;2023-03-14T16:18:22;9.68;;;3.42;;